createdAt,value
2018-08-24T00:01:28.445Z,99736.63
2018-08-24T00:03:57.034Z,99728.50
2018-08-24T00:06:25.987Z,99721.48
2018-08-24T00:08:55.327Z,99718.08
2018-08-24T00:11:24.141Z,99732.06
2018-08-24T00:13:52.800Z,99727.39
2018-08-24T00:16:26.823Z,99742.72
2018-08-24T00:18:55.392Z,99739.05
2018-08-24T00:21:24.031Z,99720.34
2018-08-24T00:23:52.583Z,99715.85
2018-08-24T00:26:21.187Z,99722.53
2018-08-24T00:28:49.680Z,99708.99
2018-08-24T00:31:18.428Z,99689.30
2018-08-24T00:33:52.091Z,99666.59
2018-08-24T00:36:22.194Z,99675.94
2018-08-24T00:38:50.912Z,99669.59
2018-08-24T00:41:19.500Z,99657.42
2018-08-24T00:43:48.385Z,99645.77
2018-08-24T00:46:16.911Z,99650.27
2018-08-24T00:48:46.079Z,99649.63
2018-08-24T00:51:14.575Z,99652.97
2018-08-24T00:53:43.183Z,99668.36
2018-08-24T00:56:12.327Z,99686.73
2018-08-24T00:58:41.059Z,99681.38
2018-08-24T01:01:10.275Z,99680.53
2018-08-24T01:03:39.451Z,99683.05
2018-08-24T01:06:08.143Z,99685.72
2018-08-24T01:08:37.138Z,99698.75
2018-08-24T01:11:05.769Z,99704.76
2018-08-24T01:13:34.556Z,99691.97
2018-08-24T01:16:03.856Z,99703.87
2018-08-24T01:18:37.695Z,99705.36
2018-08-24T01:21:06.349Z,99714.70
2018-08-24T01:23:35.545Z,99705.66
2018-08-24T01:26:04.139Z,99714.52
2018-08-24T01:28:32.850Z,99716.48
2018-08-24T01:31:05.561Z,99710.22
2018-08-24T01:33:34.592Z,99718.49
2018-08-24T01:36:03.156Z,99713.70
2018-08-24T01:38:32.346Z,99708.95
2018-08-24T01:41:00.953Z,99710.92
2018-08-24T01:43:29.532Z,99700.53
2018-08-24T01:46:14.794Z,99699.86
2018-08-24T01:48:43.654Z,99687.84
2018-08-24T01:51:12.278Z,99686.52
2018-08-24T01:53:40.811Z,99668.94
2018-08-24T01:56:09.546Z,99666.27
2018-08-24T01:58:38.134Z,99664.41
2018-08-24T02:01:06.709Z,99660.41
2018-08-24T02:03:35.398Z,99676.05
2018-08-24T02:06:06.978Z,99686.69
2018-08-24T02:08:36.762Z,99692.47
2018-08-24T02:11:10.927Z,99683.27
2018-08-24T02:13:46.187Z,99665.22
2018-08-24T02:16:14.858Z,99659.21
2018-08-24T02:18:48.655Z,99656.39
2018-08-24T02:21:22.375Z,99665.22
2018-08-24T02:23:51.714Z,99665.22
2018-08-24T02:26:20.402Z,99662.55
2018-08-24T02:28:49.143Z,99665.88
2018-08-24T02:31:17.821Z,99667.22
2018-08-24T02:33:46.245Z,99658.55
2018-08-24T02:36:14.891Z,99659.88
2018-08-24T02:38:43.513Z,99657.87
2018-08-24T02:41:12.097Z,99650.84
2018-08-24T02:43:40.623Z,99649.80
2018-08-24T02:46:10.175Z,99642.50
2018-08-24T02:48:38.692Z,99643.34
2018-08-24T02:51:07.294Z,99638.83
2018-08-24T02:53:35.795Z,99640.13
2018-08-24T02:56:04.417Z,99650.41
2018-08-24T02:58:32.997Z,99653.71
2018-08-24T03:01:01.631Z,99647.00
2018-08-24T03:03:30.166Z,99647.58
2018-08-24T03:05:58.847Z,99649.39
2018-08-24T03:08:27.556Z,99632.34
2018-08-24T03:10:56.000Z,99630.97
2018-08-24T03:13:24.699Z,99627.78
2018-08-24T03:15:53.917Z,99627.45
2018-08-24T03:18:22.682Z,99628.59
2018-08-24T03:20:51.471Z,99622.41
2018-08-24T03:23:20.054Z,99615.40
2018-08-24T03:25:48.739Z,99608.03
2018-08-24T03:28:17.283Z,99619.03
2018-08-24T03:30:45.851Z,99613.36
2018-08-24T03:33:14.458Z,99606.36
2018-08-24T03:35:42.969Z,99615.33
2018-08-24T03:38:11.654Z,99614.98
2018-08-24T03:40:40.286Z,99614.13
2018-08-24T03:43:09.136Z,99606.28
2018-08-24T03:45:37.913Z,99603.61
2018-08-24T03:48:06.555Z,99607.98
2018-08-24T03:50:35.592Z,99612.61
2018-08-24T03:53:04.329Z,99608.27
2018-08-24T03:55:36.589Z,99613.86
2018-08-24T03:58:06.618Z,99625.64
2018-08-24T04:00:35.192Z,99622.44
2018-08-24T04:03:04.191Z,99631.55
2018-08-24T04:05:33.745Z,99623.21
2018-08-24T04:08:02.432Z,99626.87
2018-08-24T04:10:31.579Z,99632.01
2018-08-24T04:13:00.212Z,99618.83
2018-08-24T04:15:28.793Z,99613.97
2018-08-24T04:17:57.319Z,99614.59
2018-08-24T04:20:26.470Z,99626.06
2018-08-24T04:22:54.999Z,99651.81
2018-08-24T04:25:23.574Z,99655.09
2018-08-24T04:27:52.219Z,99635.39
2018-08-24T04:30:20.858Z,99631.73
2018-08-24T04:32:49.492Z,99632.25
2018-08-24T04:35:18.011Z,99616.73
2018-08-24T04:37:47.313Z,99631.20
2018-08-24T04:40:15.887Z,99646.34
2018-08-24T04:42:44.538Z,99652.16
2018-08-24T04:45:13.933Z,99622.98
2018-08-24T04:47:42.521Z,99647.19
2018-08-24T04:50:11.206Z,99653.06
2018-08-24T04:52:40.712Z,99646.11
2018-08-24T04:55:09.360Z,99643.67
2018-08-24T04:57:38.286Z,99649.82
2018-08-24T05:00:08.815Z,99665.53
2018-08-24T05:02:37.822Z,99666.19
2018-08-24T05:05:07.351Z,99672.85
2018-08-24T05:07:35.894Z,99648.86
2018-08-24T05:10:05.501Z,99650.53
2018-08-24T05:12:34.144Z,99637.34
2018-08-24T05:15:02.719Z,99625.83
2018-08-24T05:17:31.319Z,99633.16
2018-08-24T05:19:59.848Z,99610.27
2018-08-24T05:22:28.564Z,99605.94
2018-08-24T05:24:57.194Z,99612.73
2018-08-24T05:27:25.888Z,99616.73
2018-08-24T05:29:54.470Z,99600.98
2018-08-24T05:32:24.691Z,99623.06
2018-08-24T05:34:54.916Z,99621.73
2018-08-24T05:37:26.158Z,99609.45
2018-08-24T05:39:57.587Z,99599.47
2018-08-24T05:42:29.469Z,99598.55
2018-08-24T05:45:02.047Z,99603.94
2018-08-24T05:47:32.883Z,99595.07
2018-08-24T05:50:02.953Z,99595.48
2018-08-24T05:52:36.218Z,99588.91
2018-08-24T05:55:05.735Z,99590.98
2018-08-24T05:57:36.735Z,99574.98
2018-08-24T06:00:08.316Z,99568.36
2018-08-24T06:02:40.322Z,99559.10
2018-08-24T06:05:12.763Z,99577.48
2018-08-24T06:07:46.078Z,99592.34
2018-08-24T06:10:15.600Z,99598.86
2018-08-24T06:12:44.311Z,99608.90
2018-08-24T06:15:16.067Z,99602.86
2018-08-24T06:17:50.319Z,99598.52
2018-08-24T06:20:20.049Z,99602.11
2018-08-24T06:22:48.944Z,99592.62
2018-08-24T06:25:17.519Z,99595.44
2018-08-24T06:27:47.615Z,99604.44
2018-08-24T06:30:16.987Z,99604.07
2018-08-24T06:32:45.625Z,99613.11
2018-08-24T06:35:14.424Z,99627.02
2018-08-24T06:37:42.996Z,99619.57
2018-08-24T06:40:11.627Z,99611.61
2018-08-24T06:42:40.740Z,99624.95
2018-08-24T06:45:09.347Z,99627.95
2018-08-24T06:47:38.605Z,99621.94
2018-08-24T06:50:07.288Z,99631.47
2018-08-24T06:52:35.831Z,99610.02
2018-08-24T06:55:05.081Z,99613.84
2018-08-24T06:57:33.718Z,99612.95
2018-08-24T07:00:02.336Z,99611.36
2018-08-24T07:02:30.859Z,99616.81
2018-08-24T07:04:59.511Z,99633.34
2018-08-24T07:07:28.223Z,99630.59
2018-08-24T07:09:56.796Z,99627.92
2018-08-24T07:12:25.420Z,99634.30
2018-08-24T07:14:54.038Z,99640.02
2018-08-24T07:17:28.457Z,99638.05
2018-08-24T07:19:56.983Z,99646.56
2018-08-24T07:22:25.625Z,99630.02
2018-08-24T07:24:54.127Z,99634.81
2018-08-24T07:27:22.729Z,99636.75
2018-08-24T07:29:51.579Z,99637.69
2018-08-24T07:32:20.263Z,99636.06
2018-08-24T07:34:48.759Z,99634.11
2018-08-24T07:37:17.532Z,99634.11
2018-08-24T07:39:46.160Z,99633.31
2018-08-24T07:42:14.720Z,99628.21
2018-08-24T07:44:48.447Z,99623.53
2018-08-24T07:47:16.986Z,99625.20
2018-08-24T07:49:45.674Z,99628.02
2018-08-24T07:52:14.353Z,99627.54
2018-08-24T07:54:42.938Z,99624.24
2018-08-24T07:57:11.595Z,99621.42
2018-08-24T07:59:40.151Z,99624.73
2018-08-24T08:02:09.300Z,99624.44
2018-08-24T08:04:37.869Z,99626.65
2018-08-24T08:07:06.978Z,99629.48
2018-08-24T08:09:35.665Z,99631.30
2018-08-24T08:12:04.347Z,99629.41
2018-08-24T08:14:32.935Z,99629.14
2018-08-24T08:17:02.824Z,99632.09
2018-08-24T08:19:32.094Z,99633.22
2018-08-24T08:22:01.547Z,99638.23
2018-08-24T08:24:30.216Z,99644.34
2018-08-24T08:26:58.767Z,99642.77
2018-08-24T08:29:32.418Z,99636.68
2018-08-24T08:32:01.001Z,99641.15
2018-08-24T08:34:29.574Z,99646.11
2018-08-24T08:36:58.266Z,99645.92
2018-08-24T08:39:26.791Z,99650.20
2018-08-24T08:41:55.436Z,99642.77
2018-08-24T08:44:23.955Z,99648.75
2018-08-24T08:46:52.647Z,99657.16
2018-08-24T08:49:21.234Z,99650.79
2018-08-24T08:51:49.949Z,99656.19
2018-08-24T08:54:18.552Z,99643.59
2018-08-24T08:56:47.135Z,99653.44
2018-08-24T08:59:15.822Z,99650.97
2018-08-24T09:01:44.326Z,99648.09
2018-08-24T09:04:12.932Z,99648.03
2018-08-24T09:06:41.572Z,99646.23
2018-08-24T09:09:10.935Z,99648.05
2018-08-24T09:11:39.528Z,99649.08
2018-08-24T09:14:08.739Z,99647.64
2018-08-24T09:16:37.403Z,99647.02
2018-08-24T09:19:11.141Z,99652.22
2018-08-24T09:21:44.841Z,99644.39
2018-08-24T09:24:18.732Z,99645.75
2018-08-24T09:26:52.660Z,99653.98
2018-08-24T09:29:23.099Z,99653.14
2018-08-24T09:31:51.729Z,99646.11
2018-08-24T09:34:20.359Z,99642.37
2018-08-24T09:36:49.055Z,99642.41
2018-08-24T09:39:21.545Z,99639.73
2018-08-24T09:41:50.220Z,99639.73
2018-08-24T09:44:19.234Z,99642.09
2018-08-24T09:46:52.993Z,99641.13
2018-08-24T09:49:26.801Z,99645.80
2018-08-24T09:51:55.382Z,99646.12
2018-08-24T09:54:23.886Z,99651.09
2018-08-24T09:56:52.496Z,99529.37
2018-08-24T09:59:21.028Z,99647.72
2018-08-24T10:01:54.631Z,99655.27
2018-08-24T10:04:28.491Z,99645.41
2018-08-24T10:07:02.388Z,99647.08
2018-08-24T10:09:31.083Z,99647.45
2018-08-24T10:11:59.657Z,99643.66
2018-08-24T10:14:28.655Z,99638.50
2018-08-24T10:16:57.287Z,99644.05
2018-08-24T10:19:25.832Z,99640.73
2018-08-24T10:21:54.453Z,99635.23
2018-08-24T10:24:23.019Z,99630.23
2018-08-24T10:26:51.824Z,99632.91
2018-08-24T10:29:21.141Z,99618.50
2018-08-24T10:31:49.707Z,99621.17
2018-08-24T10:34:18.291Z,99619.53
2018-08-24T10:36:46.895Z,99629.91
2018-08-24T10:39:15.499Z,99623.17
2018-08-24T10:41:44.144Z,99612.13
2018-08-24T10:44:12.646Z,99614.48
2018-08-24T10:46:41.255Z,99616.83
2018-08-24T10:49:09.865Z,99621.55
2018-08-24T10:51:38.471Z,99624.23
2018-08-24T10:54:07.099Z,99617.54
2018-08-24T10:56:36.424Z,99615.86
2018-08-24T10:59:04.986Z,99618.83
2018-08-24T11:01:34.135Z,99625.17
2018-08-24T11:04:03.403Z,99621.91
2018-08-24T11:06:32.571Z,99619.55
2018-08-24T11:09:01.056Z,99617.72
2018-08-24T11:11:29.848Z,99627.42
2018-08-24T11:13:59.466Z,99622.72
2018-08-24T11:16:28.615Z,99623.36
2018-08-24T11:18:57.131Z,99619.02
2018-08-24T11:21:25.701Z,99619.02
2018-08-24T11:23:54.443Z,99614.35
2018-08-24T11:26:22.985Z,99619.70
2018-08-24T11:28:51.618Z,99622.71
2018-08-24T11:31:20.202Z,99633.42
2018-08-24T11:33:48.705Z,99639.13
2018-08-24T11:36:17.349Z,99641.89
2018-08-24T11:38:45.891Z,99640.09
2018-08-24T11:41:14.536Z,99644.58
2018-08-24T11:43:43.624Z,99642.77
2018-08-24T11:46:12.151Z,99645.64
2018-08-24T11:48:40.692Z,99659.20
2018-08-24T11:51:09.315Z,99661.98
2018-08-24T11:53:37.961Z,99670.77
2018-08-24T11:56:07.421Z,99674.53
2018-08-24T11:58:36.040Z,99668.31
2018-08-24T12:01:04.573Z,99670.28
2018-08-24T12:03:33.316Z,99677.94
2018-08-24T12:06:02.698Z,99681.19
2018-08-24T12:08:31.301Z,99689.73
2018-08-24T12:10:59.883Z,99687.64
2018-08-24T12:13:28.466Z,99676.17
2018-08-24T12:15:57.051Z,99680.37
2018-08-24T12:18:25.780Z,99675.76
2018-08-24T12:20:54.420Z,99676.03
2018-08-24T12:23:23.542Z,99669.70
2018-08-24T12:25:52.096Z,99656.63
2018-08-24T12:28:20.603Z,99645.80
2018-08-24T12:30:49.165Z,99655.45
2018-08-24T12:33:17.689Z,99649.88
2018-08-24T12:35:46.239Z,99659.34
2018-08-24T12:38:14.851Z,99657.24
2018-08-24T12:40:43.594Z,99649.69
2018-08-24T12:43:12.259Z,99651.09
2018-08-24T12:45:41.615Z,99648.42
2018-08-24T12:48:10.291Z,99639.80
2018-08-24T12:50:38.879Z,99640.13
2018-08-24T12:53:08.107Z,99640.86
2018-08-24T12:55:36.671Z,99632.87
2018-08-24T12:58:05.451Z,99639.94
2018-08-24T13:00:34.187Z,99586.77
2018-08-24T13:03:02.696Z,99637.20
2018-08-24T13:05:32.044Z,99635.54
2018-08-24T13:08:00.711Z,99631.53
2018-08-24T13:10:29.297Z,99632.69
2018-08-24T13:12:58.448Z,99630.83
2018-08-24T13:15:27.034Z,99628.68
2018-08-24T13:17:55.615Z,99626.88
2018-08-24T13:20:24.230Z,99633.59
2018-08-24T13:22:52.731Z,99630.17
2018-08-24T13:25:21.335Z,99637.52
2018-08-24T13:27:50.003Z,99628.80
2018-08-24T13:30:18.632Z,99630.17
2018-08-24T13:32:47.316Z,99623.77
2018-08-24T13:35:15.829Z,99623.77
2018-08-24T13:37:44.327Z,99633.05
2018-08-24T13:40:13.067Z,99636.03
2018-08-24T13:42:41.648Z,99634.72
2018-08-24T13:45:10.231Z,99629.74
2018-08-24T13:47:38.755Z,99630.63
2018-08-24T13:50:07.467Z,99633.30
2018-08-24T13:52:36.187Z,99630.38
2018-08-24T13:55:04.807Z,99626.91
2018-08-24T13:57:33.523Z,99628.40
2018-08-24T14:00:02.174Z,99622.90
2018-08-24T14:02:30.722Z,99628.01
2018-08-24T14:04:59.286Z,99632.53
2018-08-24T14:07:28.729Z,99634.90
2018-08-24T14:09:57.365Z,99640.86
2018-08-24T14:12:26.223Z,99641.31
2018-08-24T14:14:54.827Z,99644.11
2018-08-24T14:17:23.499Z,99647.39
2018-08-24T14:19:52.237Z,99653.78
2018-08-24T14:22:20.843Z,99639.98
2018-08-24T14:24:49.547Z,99639.70
2018-08-24T14:27:18.246Z,99639.70
2018-08-24T14:29:47.083Z,99641.77
2018-08-24T14:32:16.037Z,99644.16
2018-08-24T14:34:44.627Z,99637.94
2018-08-24T14:37:13.174Z,99637.48
2018-08-24T14:39:41.671Z,99632.41
2018-08-24T14:42:10.227Z,99634.73
2018-08-24T14:44:38.711Z,99638.45
2018-08-24T14:47:07.251Z,99638.22
2018-08-24T14:49:35.877Z,99629.95
2018-08-24T14:52:04.530Z,99628.17
2018-08-24T14:54:33.111Z,99630.64
2018-08-24T14:57:01.743Z,99642.68
2018-08-24T14:59:30.271Z,99631.91
2018-08-24T15:01:58.775Z,99631.19
2018-08-24T15:04:27.507Z,99636.47
2018-08-24T15:06:56.048Z,99633.29
2018-08-24T15:09:24.711Z,99637.44
2018-08-24T15:11:53.239Z,99632.59
2018-08-24T15:14:21.790Z,99642.05
2018-08-24T15:16:50.516Z,99642.77
2018-08-24T15:19:19.145Z,99638.11
2018-08-24T15:21:47.727Z,99639.99
2018-08-24T15:24:17.149Z,99640.45
2018-08-24T15:26:45.859Z,99585.48
2018-08-24T15:29:14.435Z,99638.14
2018-08-24T15:31:43.082Z,99638.03
2018-08-24T15:34:11.718Z,99639.63
2018-08-24T15:36:40.352Z,99651.03
2018-08-24T15:39:11.170Z,99643.95
2018-08-24T15:41:40.122Z,99645.80
2018-08-24T15:44:09.107Z,99645.45
2018-08-24T15:46:37.755Z,99641.73
2018-08-24T15:49:07.407Z,99651.36
2018-08-24T15:51:36.149Z,99645.36
2018-08-24T15:54:05.658Z,99642.41
2018-08-24T15:56:34.183Z,99657.71
2018-08-24T15:59:02.820Z,99647.79
2018-08-24T16:01:31.444Z,99650.94
2018-08-24T16:03:59.978Z,99658.14
2018-08-24T16:06:28.888Z,99666.52
2018-08-24T16:08:58.650Z,99659.23
2018-08-24T16:11:27.215Z,99655.05
2018-08-24T16:13:55.853Z,99648.95
2018-08-24T16:16:24.359Z,99653.37
2018-08-24T16:18:52.964Z,99657.42
2018-08-24T16:21:21.854Z,99660.08
2018-08-24T16:23:50.413Z,99665.70
2018-08-24T16:26:24.977Z,99667.80
2018-08-24T16:28:54.140Z,99668.58
2018-08-24T16:31:23.203Z,99660.17
2018-08-24T16:33:52.453Z,99665.50
2018-08-24T16:36:21.035Z,99651.33
2018-08-24T16:38:50.261Z,99652.38
2018-08-24T16:41:18.968Z,99645.02
2018-08-24T16:43:47.455Z,99643.28
2018-08-24T16:46:16.954Z,99631.23
2018-08-24T16:48:46.095Z,99642.79
2018-08-24T16:51:14.632Z,99636.37
2018-08-24T16:53:43.275Z,99634.87
2018-08-24T16:56:11.829Z,99635.73
2018-08-24T16:58:40.481Z,99647.03
2018-08-24T17:01:09.115Z,99651.11
2018-08-24T17:03:37.689Z,99654.25
2018-08-24T17:06:06.304Z,99653.42
2018-08-24T17:08:35.019Z,99650.98
2018-08-24T17:11:04.248Z,99649.43
2018-08-24T17:13:33.002Z,99649.63
2018-08-24T17:16:01.604Z,99652.99
2018-08-24T17:18:30.271Z,99657.51
2018-08-24T17:20:58.855Z,99659.25
2018-08-24T17:23:27.437Z,99663.96
2018-08-24T17:25:56.122Z,99661.32
2018-08-24T17:28:24.708Z,99668.34
2018-08-24T17:30:53.288Z,99667.58
2018-08-24T17:33:21.921Z,99661.98
2018-08-24T17:35:51.340Z,99673.31
2018-08-24T17:38:19.961Z,99679.63
2018-08-24T17:40:48.530Z,99678.72
2018-08-24T17:43:17.740Z,99677.67
2018-08-24T17:45:46.419Z,99673.24
2018-08-24T17:48:15.045Z,99679.23
2018-08-24T17:50:43.767Z,99671.29
2018-08-24T17:53:12.456Z,99677.05
2018-08-24T17:55:41.179Z,99673.98
2018-08-24T17:58:09.775Z,99667.09
2018-08-24T18:00:38.492Z,99662.95
2018-08-24T18:03:07.083Z,99661.70
2018-08-24T18:05:35.810Z,99658.41
2018-08-24T18:08:05.277Z,99668.36
2018-08-24T18:10:33.935Z,99663.63
2018-08-24T18:13:02.505Z,99661.80
2018-08-24T18:15:31.161Z,99656.38
2018-08-24T18:17:59.947Z,99662.91
2018-08-24T18:20:28.485Z,99654.19
2018-08-24T18:22:57.059Z,99662.75
2018-08-24T18:25:25.799Z,99655.65
2018-08-24T18:27:54.395Z,99659.58
2018-08-24T18:30:22.969Z,99656.85
2018-08-24T18:32:51.546Z,99650.52
2018-08-24T18:35:20.079Z,99654.12
2018-08-24T18:37:48.712Z,99659.73
2018-08-24T18:40:17.398Z,99656.52
2018-08-24T18:42:45.919Z,99660.06
2018-08-24T18:45:15.793Z,99662.01
2018-08-24T18:47:44.480Z,99673.44
2018-08-24T18:50:13.213Z,99663.73
2018-08-24T18:52:41.909Z,99678.45
2018-08-24T18:55:10.424Z,99684.76
2018-08-24T18:57:39.035Z,99682.98
2018-08-24T19:00:08.006Z,99695.08
2018-08-24T19:02:36.623Z,99687.84
2018-08-24T19:05:05.256Z,99689.45
2018-08-24T19:07:33.961Z,99681.39
2018-08-24T19:10:02.542Z,99685.52
2018-08-24T19:12:31.330Z,99683.97
2018-08-24T19:15:00.026Z,99690.28
2018-08-24T19:17:33.881Z,99694.27
2018-08-24T19:20:07.535Z,99693.20
2018-08-24T19:22:36.079Z,99694.16
2018-08-24T19:25:04.797Z,99697.33
2018-08-24T19:27:38.731Z,99698.33
2018-08-24T19:30:13.243Z,99705.59
2018-08-24T19:32:41.947Z,99703.06
2018-08-24T19:35:10.511Z,99703.19
2018-08-24T19:37:39.125Z,99711.81
2018-08-24T19:40:13.111Z,99706.12
2018-08-24T19:42:41.770Z,99705.51
2018-08-24T19:45:11.056Z,99707.82
2018-08-24T19:47:44.875Z,99710.48
2018-08-24T19:50:13.558Z,99709.41
2018-08-24T19:52:42.141Z,99705.31
2018-08-24T19:55:10.917Z,99708.34
2018-08-24T19:58:45.465Z,99711.87
2018-08-24T20:01:14.057Z,99715.86
2018-08-24T20:03:42.829Z,99718.18
2018-08-24T20:06:16.703Z,99720.11
2018-08-24T20:08:50.454Z,99725.77
2018-08-24T20:11:19.026Z,99721.78
2018-08-24T20:13:47.655Z,99722.98
2018-08-24T20:16:21.398Z,99721.19
2018-08-24T20:18:50.003Z,99722.77
2018-08-24T20:21:18.577Z,99722.52
2018-08-24T20:23:48.127Z,99726.23
2018-08-24T20:26:16.635Z,99728.98
2018-08-24T20:28:45.203Z,99727.85
2018-08-24T20:31:13.753Z,99723.94
2018-08-24T20:33:42.457Z,99730.97
2018-08-24T20:36:11.631Z,99730.97
2018-08-24T20:38:40.200Z,99728.44
2018-08-24T20:41:08.877Z,99735.83
2018-08-24T20:43:37.631Z,99733.43
2018-08-24T20:46:06.364Z,99735.23
2018-08-24T20:48:34.933Z,99735.61
2018-08-24T20:51:03.613Z,99734.67
2018-08-24T20:53:32.201Z,99741.59
2018-08-24T20:56:00.886Z,99748.49
2018-08-24T20:58:29.520Z,99745.45
2018-08-24T21:00:58.768Z,99746.44
2018-08-24T21:03:27.454Z,99744.77
2018-08-24T21:05:56.046Z,99748.63
2018-08-24T21:08:24.562Z,99756.98
2018-08-24T21:10:53.203Z,99751.67
2018-08-24T21:13:21.785Z,99750.59
2018-08-24T21:15:50.459Z,99754.72
2018-08-24T21:18:19.106Z,99757.50
2018-08-24T21:20:47.753Z,99758.45
2018-08-24T21:23:16.424Z,99757.50
2018-08-24T21:25:45.027Z,99757.63
2018-08-24T21:28:13.642Z,99764.75
2018-08-24T21:30:42.275Z,99754.16
2018-08-24T21:33:11.472Z,99755.62
2018-08-24T21:35:40.599Z,99744.98
2018-08-24T21:38:09.600Z,99757.67
2018-08-24T21:40:38.191Z,99749.06
2018-08-24T21:43:06.806Z,99753.91
2018-08-24T21:45:35.902Z,99751.63
2018-08-24T21:48:04.427Z,99751.28
2018-08-24T21:50:33.118Z,99750.91
2018-08-24T21:53:02.184Z,99749.70
2018-08-24T21:55:30.871Z,99745.97
2018-08-24T21:57:59.427Z,99743.31
2018-08-24T22:00:28.243Z,99747.17
2018-08-24T22:02:56.924Z,99738.64
2018-08-24T22:05:26.866Z,99743.70
2018-08-24T22:07:56.037Z,99748.67
2018-08-24T22:10:24.620Z,99739.97
2018-08-24T22:12:53.304Z,99736.63
2018-08-24T22:15:21.798Z,99741.30
2018-08-24T22:17:50.469Z,99748.58
2018-08-24T22:20:19.018Z,99756.90
2018-08-24T22:22:47.513Z,99751.58
2018-08-24T22:25:16.114Z,99751.11
2018-08-24T22:27:45.620Z,99758.58
2018-08-24T22:30:14.408Z,99755.22
2018-08-24T22:32:43.050Z,99743.62
2018-08-24T22:35:11.604Z,99756.91
2018-08-24T22:37:40.261Z,99758.83
2018-08-24T22:40:08.896Z,99761.96
2018-08-24T22:42:37.834Z,99754.12
2018-08-24T22:45:06.621Z,99746.27
2018-08-24T22:47:35.513Z,99752.70
2018-08-24T22:50:04.215Z,99751.84
2018-08-24T22:52:32.779Z,99744.85
2018-08-24T22:55:01.364Z,99752.22
2018-08-24T22:57:29.959Z,99755.00
2018-08-24T22:59:58.527Z,99750.67
2018-08-24T23:02:27.134Z,99755.00
2018-08-24T23:04:55.744Z,99754.31
2018-08-24T23:07:24.995Z,99755.64
2018-08-24T23:09:53.547Z,99758.64
2018-08-24T23:12:22.104Z,99759.97
2018-08-24T23:14:50.653Z,99759.12
2018-08-24T23:17:19.247Z,99759.94
2018-08-24T23:19:47.742Z,99762.22
2018-08-24T23:22:16.390Z,99761.61
2018-08-24T23:24:44.988Z,99755.70
2018-08-24T23:27:14.373Z,99753.73
2018-08-24T23:29:42.987Z,99748.80
2018-08-24T23:32:11.540Z,99748.42
2018-08-24T23:34:40.223Z,99750.48
2018-08-24T23:37:09.216Z,99747.35
2018-08-24T23:39:37.900Z,99742.41
2018-08-24T23:42:06.615Z,99749.87
2018-08-24T23:44:35.253Z,99743.36
2018-08-24T23:47:03.957Z,99745.29
2018-08-24T23:49:32.540Z,99750.13
2018-08-24T23:52:01.075Z,99748.80
2018-08-24T23:54:29.649Z,99751.80
2018-08-24T23:56:58.242Z,99746.27
2018-08-24T23:59:26.803Z,99754.46
